sensor_id;sensor_type;location;lat;lon;timestamp;temperature;humidity
4090;DHT22;2059;48.538;12.146;2023-11-21T00:01:38;9.20;99.90
4090;DHT22;2059;48.538;12.146;2023-11-21T00:06:42;9.30;99.90
4090;DHT22;2059;48.538;12.146;2023-11-21T00:11:47;9.30;99.90
4090;DHT22;2059;48.538;12.146;2023-11-21T00:16:49;9.30;99.90
4090;DHT22;2059;48.538;12.146;2023-11-21T00:21:52;9.20;99.90
4090;DHT22;2059;48.538;12.146;2023-11-21T00:26:53;9.20;99.90
4090;DHT22;2059;48.538;12.146;2023-11-21T00:31:55;9.20;99.90
4090;DHT22;2059;48.538;12.146;2023-11-21T00:36:58;9.20;99.90
4090;DHT22;2059;48.538;12.146;2023-11-21T00:42:00;9.20;99.90
4090;DHT22;2059;48.538;12.146;2023-11-21T00:47:02;9.20;99.90
4090;DHT22;2059;48.538;12.146;2023-11-21T00:52:06;9.20;99.90
4090;DHT22;2059;48.538;12.146;2023-11-21T00:57:08;9.20;99.90
4090;DHT22;2059;48.538;12.146;2023-11-21T01:02:11;9.20;99.90
4090;DHT22;2059;48.538;12.146;2023-11-21T01:07:15;9.30;99.90
4090;DHT22;2059;48.538;12.146;2023-11-21T01:12:16;9.40;99.90
4090;DHT22;2059;48.538;12.146;2023-11-21T01:17:19;9.40;99.90
4090;DHT22;2059;48.538;12.146;2023-11-21T01:22:24;9.50;99.90
4090;DHT22;2059;48.538;12.146;2023-11-21T01:27:26;9.50;99.90
4090;DHT22;2059;48.538;12.146;2023-11-21T01:32:28;9.50;99.90
4090;DHT22;2059;48.538;12.146;2023-11-21T01:37:31;9.60;99.90
4090;DHT22;2059;48.538;12.146;2023-11-21T01:42:33;9.60;99.90
4090;DHT22;2059;48.538;12.146;2023-11-21T01:47:35;9.70;99.90
4090;DHT22;2059;48.538;12.146;2023-11-21T01:52:39;9.50;99.90
4090;DHT22;2059;48.538;12.146;2023-11-21T01:57:41;9.50;99.90
4090;DHT22;2059;48.538;12.146;2023-11-21T02:02:43;9.50;99.90
4090;DHT22;2059;48.538;12.146;2023-11-21T02:07:47;9.50;99.90
4090;DHT22;2059;48.538;12.146;2023-11-21T02:12:49;9.50;99.90
4090;DHT22;2059;48.538;12.146;2023-11-21T02:17:51;9.40;99.90
4090;DHT22;2059;48.538;12.146;2023-11-21T02:22:56;9.40;99.90
4090;DHT22;2059;48.538;12.146;2023-11-21T02:28:00;9.30;99.90
4090;DHT22;2059;48.538;12.146;2023-11-21T02:33:03;9.40;99.90
4090;DHT22;2059;48.538;12.146;2023-11-21T02:38:07;9.50;99.90
4090;DHT22;2059;48.538;12.146;2023-11-21T02:43:09;9.50;99.90
4090;DHT22;2059;48.538;12.146;2023-11-21T02:48:10;9.50;99.90
4090;DHT22;2059;48.538;12.146;2023-11-21T02:53:14;9.50;99.90
4090;DHT22;2059;48.538;12.146;2023-11-21T02:58:15;9.50;99.90
4090;DHT22;2059;48.538;12.146;2023-11-21T03:03:17;9.60;99.90
4090;DHT22;2059;48.538;12.146;2023-11-21T03:08:20;9.70;99.90
4090;DHT22;2059;48.538;12.146;2023-11-21T03:13:22;9.50;99.90
4090;DHT22;2059;48.538;12.146;2023-11-21T03:18:24;9.50;99.90
4090;DHT22;2059;48.538;12.146;2023-11-21T03:23:27;9.70;99.90
4090;DHT22;2059;48.538;12.146;2023-11-21T03:28:29;9.50;99.90
4090;DHT22;2059;48.538;12.146;2023-11-21T03:33:31;9.50;99.90
4090;DHT22;2059;48.538;12.146;2023-11-21T03:38:34;9.50;99.90
4090;DHT22;2059;48.538;12.146;2023-11-21T03:43:36;9.40;99.90
4090;DHT22;2059;48.538;12.146;2023-11-21T03:48:38;9.50;99.90
4090;DHT22;2059;48.538;12.146;2023-11-21T03:53:41;9.50;99.90
4090;DHT22;2059;48.538;12.146;2023-11-21T03:58:43;9.60;99.90
4090;DHT22;2059;48.538;12.146;2023-11-21T04:03:45;9.50;99.90
4090;DHT22;2059;48.538;12.146;2023-11-21T04:08:48;9.60;99.90
4090;DHT22;2059;48.538;12.146;2023-11-21T04:13:50;9.50;99.90
4090;DHT22;2059;48.538;12.146;2023-11-21T04:18:53;9.60;99.90
4090;DHT22;2059;48.538;12.146;2023-11-21T04:23:56;9.60;99.90
4090;DHT22;2059;48.538;12.146;2023-11-21T04:28:57;9.60;99.90
4090;DHT22;2059;48.538;12.146;2023-11-21T04:33:59;9.60;99.90
4090;DHT22;2059;48.538;12.146;2023-11-21T04:39:03;9.70;99.90
4090;DHT22;2059;48.538;12.146;2023-11-21T04:44:05;9.70;99.90
4090;DHT22;2059;48.538;12.146;2023-11-21T04:49:07;9.60;99.90
4090;DHT22;2059;48.538;12.146;2023-11-21T04:54:10;9.70;99.90
4090;DHT22;2059;48.538;12.146;2023-11-21T04:59:12;9.70;99.90
4090;DHT22;2059;48.538;12.146;2023-11-21T05:04:14;9.60;99.90
4090;DHT22;2059;48.538;12.146;2023-11-21T05:09:17;9.60;99.90
4090;DHT22;2059;48.538;12.146;2023-11-21T05:14:19;9.60;99.90
4090;DHT22;2059;48.538;12.146;2023-11-21T05:19:21;9.60;99.90
4090;DHT22;2059;48.538;12.146;2023-11-21T05:24:24;9.60;99.90
4090;DHT22;2059;48.538;12.146;2023-11-21T05:29:26;9.70;99.90
4090;DHT22;2059;48.538;12.146;2023-11-21T05:34:28;9.70;99.90
4090;DHT22;2059;48.538;12.146;2023-11-21T05:39:31;9.60;99.90
4090;DHT22;2059;48.538;12.146;2023-11-21T05:44:33;9.70;99.90
4090;DHT22;2059;48.538;12.146;2023-11-21T05:49:35;9.60;99.90
4090;DHT22;2059;48.538;12.146;2023-11-21T05:54:38;9.60;99.90
4090;DHT22;2059;48.538;12.146;2023-11-21T05:59:40;9.60;99.90
4090;DHT22;2059;48.538;12.146;2023-11-21T06:04:42;9.70;99.90
4090;DHT22;2059;48.538;12.146;2023-11-21T06:09:45;9.60;99.90
4090;DHT22;2059;48.538;12.146;2023-11-21T06:14:49;9.60;99.90
4090;DHT22;2059;48.538;12.146;2023-11-21T06:19:51;9.60;99.90
4090;DHT22;2059;48.538;12.146;2023-11-21T06:24:54;9.60;99.90
4090;DHT22;2059;48.538;12.146;2023-11-21T06:29:56;9.60;99.90
4090;DHT22;2059;48.538;12.146;2023-11-21T06:34:58;9.70;99.90
4090;DHT22;2059;48.538;12.146;2023-11-21T06:40:02;9.70;99.90
4090;DHT22;2059;48.538;12.146;2023-11-21T06:45:06;9.70;99.90
4090;DHT22;2059;48.538;12.146;2023-11-21T06:50:11;9.70;99.90
4090;DHT22;2059;48.538;12.146;2023-11-21T06:55:14;9.70;99.90
4090;DHT22;2059;48.538;12.146;2023-11-21T07:00:17;9.60;99.90
4090;DHT22;2059;48.538;12.146;2023-11-21T07:05:20;9.60;99.90
4090;DHT22;2059;48.538;12.146;2023-11-21T07:10:24;9.60;99.90
4090;DHT22;2059;48.538;12.146;2023-11-21T07:15:27;9.60;99.90
4090;DHT22;2059;48.538;12.146;2023-11-21T07:20:28;9.70;99.90
4090;DHT22;2059;48.538;12.146;2023-11-21T07:25:32;9.90;99.90
4090;DHT22;2059;48.538;12.146;2023-11-21T07:30:34;9.80;99.90
4090;DHT22;2059;48.538;12.146;2023-11-21T07:35:36;9.90;99.90
4090;DHT22;2059;48.538;12.146;2023-11-21T07:40:39;10.00;99.90
4090;DHT22;2059;48.538;12.146;2023-11-21T07:45:41;10.00;99.90
4090;DHT22;2059;48.538;12.146;2023-11-21T07:50:43;9.90;99.90
4090;DHT22;2059;48.538;12.146;2023-11-21T07:55:46;10.10;99.90
4090;DHT22;2059;48.538;12.146;2023-11-21T08:00:49;10.10;99.90
4090;DHT22;2059;48.538;12.146;2023-11-21T08:05:51;10.40;99.90
4090;DHT22;2059;48.538;12.146;2023-11-21T08:10:54;10.40;99.90
4090;DHT22;2059;48.538;12.146;2023-11-21T08:15:57;10.10;99.90
4090;DHT22;2059;48.538;12.146;2023-11-21T08:21:03;10.40;99.90
4090;DHT22;2059;48.538;12.146;2023-11-21T08:26:07;10.50;99.90
4090;DHT22;2059;48.538;12.146;2023-11-21T08:31:09;10.50;99.90
4090;DHT22;2059;48.538;12.146;2023-11-21T08:36:11;10.30;99.90
4090;DHT22;2059;48.538;12.146;2023-11-21T08:41:14;10.50;99.90
4090;DHT22;2059;48.538;12.146;2023-11-21T08:46:16;10.10;99.90
4090;DHT22;2059;48.538;12.146;2023-11-21T08:51:18;10.10;99.90
4090;DHT22;2059;48.538;12.146;2023-11-21T08:56:22;10.20;99.90
4090;DHT22;2059;48.538;12.146;2023-11-21T09:01:24;10.30;99.90
4090;DHT22;2059;48.538;12.146;2023-11-21T09:06:25;10.40;99.90
4090;DHT22;2059;48.538;12.146;2023-11-21T09:11:28;10.50;99.90
4090;DHT22;2059;48.538;12.146;2023-11-21T09:16:33;10.70;99.90
4090;DHT22;2059;48.538;12.146;2023-11-21T09:21:35;10.80;99.90
4090;DHT22;2059;48.538;12.146;2023-11-21T09:26:38;10.70;99.90
4090;DHT22;2059;48.538;12.146;2023-11-21T09:31:40;10.90;99.90
4090;DHT22;2059;48.538;12.146;2023-11-21T09:36:44;10.80;99.90
4090;DHT22;2059;48.538;12.146;2023-11-21T09:41:49;10.80;99.90
4090;DHT22;2059;48.538;12.146;2023-11-21T09:46:52;11.20;99.90
4090;DHT22;2059;48.538;12.146;2023-11-21T09:51:55;11.30;99.90
4090;DHT22;2059;48.538;12.146;2023-11-21T09:56:59;11.10;99.90
4090;DHT22;2059;48.538;12.146;2023-11-21T10:02:02;11.10;99.90
4090;DHT22;2059;48.538;12.146;2023-11-21T10:07:04;10.90;99.90
4090;DHT22;2059;48.538;12.146;2023-11-21T10:12:12;10.90;99.90
4090;DHT22;2059;48.538;12.146;2023-11-21T10:17:15;10.70;99.90
4090;DHT22;2059;48.538;12.146;2023-11-21T10:22:20;10.60;99.90
4090;DHT22;2059;48.538;12.146;2023-11-21T10:27:23;10.70;99.90
4090;DHT22;2059;48.538;12.146;2023-11-21T10:32:28;10.70;99.90
4090;DHT22;2059;48.538;12.146;2023-11-21T10:37:32;10.90;99.90
4090;DHT22;2059;48.538;12.146;2023-11-21T10:42:35;11.00;99.90
4090;DHT22;2059;48.538;12.146;2023-11-21T10:47:38;11.00;99.90
4090;DHT22;2059;48.538;12.146;2023-11-21T10:52:40;11.00;99.90
4090;DHT22;2059;48.538;12.146;2023-11-21T10:57:46;11.10;99.90
4090;DHT22;2059;48.538;12.146;2023-11-21T11:02:51;11.10;99.90
4090;DHT22;2059;48.538;12.146;2023-11-21T11:07:58;11.30;99.90
4090;DHT22;2059;48.538;12.146;2023-11-21T11:13:03;11.40;99.90
4090;DHT22;2059;48.538;12.146;2023-11-21T11:18:05;11.60;99.90
4090;DHT22;2059;48.538;12.146;2023-11-21T11:23:28;11.70;99.90
4090;DHT22;2059;48.538;12.146;2023-11-21T11:28:41;12.00;99.90
4090;DHT22;2059;48.538;12.146;2023-11-21T11:33:53;12.10;99.90
4090;DHT22;2059;48.538;12.146;2023-11-21T11:38:55;12.30;99.90
4090;DHT22;2059;48.538;12.146;2023-11-21T11:44:00;12.50;99.90
4090;DHT22;2059;48.538;12.146;2023-11-21T11:49:03;12.60;99.90
4090;DHT22;2059;48.538;12.146;2023-11-21T11:54:05;12.50;99.90
4090;DHT22;2059;48.538;12.146;2023-11-21T11:59:09;12.40;99.90
4090;DHT22;2059;48.538;12.146;2023-11-21T12:04:24;12.40;99.90
4090;DHT22;2059;48.538;12.146;2023-11-21T12:09:32;12.30;99.90
4090;DHT22;2059;48.538;12.146;2023-11-21T12:14:36;12.20;99.90
4090;DHT22;2059;48.538;12.146;2023-11-21T12:19:38;12.20;99.90
4090;DHT22;2059;48.538;12.146;2023-11-21T12:24:39;12.20;99.90
4090;DHT22;2059;48.538;12.146;2023-11-21T12:29:43;12.10;99.90
4090;DHT22;2059;48.538;12.146;2023-11-21T12:34:44;12.20;99.90
4090;DHT22;2059;48.538;12.146;2023-11-21T12:39:47;12.10;99.90
4090;DHT22;2059;48.538;12.146;2023-11-21T12:45:08;12.00;99.90
4090;DHT22;2059;48.538;12.146;2023-11-21T12:50:14;12.10;99.90
4090;DHT22;2059;48.538;12.146;2023-11-21T12:55:17;12.20;99.90
4090;DHT22;2059;48.538;12.146;2023-11-21T13:00:31;11.90;99.90
4090;DHT22;2059;48.538;12.146;2023-11-21T13:05:35;11.90;99.90
4090;DHT22;2059;48.538;12.146;2023-11-21T13:10:41;12.00;99.90
4090;DHT22;2059;48.538;12.146;2023-11-21T13:15:49;12.10;99.90
4090;DHT22;2059;48.538;12.146;2023-11-21T13:20:53;12.00;99.90
4090;DHT22;2059;48.538;12.146;2023-11-21T13:25:55;12.00;99.90
4090;DHT22;2059;48.538;12.146;2023-11-21T13:30:58;11.90;99.90
4090;DHT22;2059;48.538;12.146;2023-11-21T13:36:04;12.00;99.90
4090;DHT22;2059;48.538;12.146;2023-11-21T13:41:08;12.00;99.90
4090;DHT22;2059;48.538;12.146;2023-11-21T13:46:11;12.00;99.90
4090;DHT22;2059;48.538;12.146;2023-11-21T13:51:17;12.10;99.90
4090;DHT22;2059;48.538;12.146;2023-11-21T13:56:20;12.00;99.90
4090;DHT22;2059;48.538;12.146;2023-11-21T14:01:26;11.90;99.90
4090;DHT22;2059;48.538;12.146;2023-11-21T14:06:49;11.80;99.90
4090;DHT22;2059;48.538;12.146;2023-11-21T14:11:55;11.90;99.90
4090;DHT22;2059;48.538;12.146;2023-11-21T14:16:59;12.00;99.90
4090;DHT22;2059;48.538;12.146;2023-11-21T14:22:00;12.00;99.90
4090;DHT22;2059;48.538;12.146;2023-11-21T14:27:02;11.70;99.90
4090;DHT22;2059;48.538;12.146;2023-11-21T14:32:07;11.60;99.90
4090;DHT22;2059;48.538;12.146;2023-11-21T14:37:09;11.50;99.90
4090;DHT22;2059;48.538;12.146;2023-11-21T14:42:14;11.60;99.90
4090;DHT22;2059;48.538;12.146;2023-11-21T14:47:17;11.60;99.90
4090;DHT22;2059;48.538;12.146;2023-11-21T14:52:25;11.60;99.90
4090;DHT22;2059;48.538;12.146;2023-11-21T14:57:34;11.30;99.90
4090;DHT22;2059;48.538;12.146;2023-11-21T15:02:37;11.30;99.90
4090;DHT22;2059;48.538;12.146;2023-11-21T15:07:50;11.30;99.90
4090;DHT22;2059;48.538;12.146;2023-11-21T15:12:56;11.30;99.90
4090;DHT22;2059;48.538;12.146;2023-11-21T15:17:59;11.40;99.90
4090;DHT22;2059;48.538;12.146;2023-11-21T15:23:01;11.20;99.90
4090;DHT22;2059;48.538;12.146;2023-11-21T15:28:05;11.30;99.90
4090;DHT22;2059;48.538;12.146;2023-11-21T15:33:08;11.30;99.90
4090;DHT22;2059;48.538;12.146;2023-11-21T15:38:10;11.20;99.90
4090;DHT22;2059;48.538;12.146;2023-11-21T15:43:13;11.10;99.90
4090;DHT22;2059;48.538;12.146;2023-11-21T15:48:16;11.10;99.90
4090;DHT22;2059;48.538;12.146;2023-11-21T15:53:18;11.20;99.90
4090;DHT22;2059;48.538;12.146;2023-11-21T15:58:20;11.10;99.90
4090;DHT22;2059;48.538;12.146;2023-11-21T16:03:23;11.00;99.90
4090;DHT22;2059;48.538;12.146;2023-11-21T16:08:25;10.90;99.90
4090;DHT22;2059;48.538;12.146;2023-11-21T16:13:26;10.90;99.90
4090;DHT22;2059;48.538;12.146;2023-11-21T16:18:30;10.90;99.90
4090;DHT22;2059;48.538;12.146;2023-11-21T16:23:31;10.90;99.90
4090;DHT22;2059;48.538;12.146;2023-11-21T16:28:33;10.90;99.90
4090;DHT22;2059;48.538;12.146;2023-11-21T16:33:36;10.80;99.90
4090;DHT22;2059;48.538;12.146;2023-11-21T16:38:39;10.90;99.90
4090;DHT22;2059;48.538;12.146;2023-11-21T16:43:41;10.70;99.90
4090;DHT22;2059;48.538;12.146;2023-11-21T16:48:44;10.80;99.90
4090;DHT22;2059;48.538;12.146;2023-11-21T16:53:46;10.80;99.90
4090;DHT22;2059;48.538;12.146;2023-11-21T16:58:47;10.70;99.90
4090;DHT22;2059;48.538;12.146;2023-11-21T17:03:51;10.70;99.90
4090;DHT22;2059;48.538;12.146;2023-11-21T17:08:53;10.70;99.90
4090;DHT22;2059;48.538;12.146;2023-11-21T17:13:55;10.70;99.90
4090;DHT22;2059;48.538;12.146;2023-11-21T17:18:59;10.70;99.90
4090;DHT22;2059;48.538;12.146;2023-11-21T17:24:00;10.70;99.90
4090;DHT22;2059;48.538;12.146;2023-11-21T17:29:02;10.70;99.90
4090;DHT22;2059;48.538;12.146;2023-11-21T17:34:06;10.70;99.90
4090;DHT22;2059;48.538;12.146;2023-11-21T17:39:07;10.70;99.90
4090;DHT22;2059;48.538;12.146;2023-11-21T17:44:10;10.80;99.90
4090;DHT22;2059;48.538;12.146;2023-11-21T17:49:14;10.70;99.90
4090;DHT22;2059;48.538;12.146;2023-11-21T17:54:16;10.70;99.90
4090;DHT22;2059;48.538;12.146;2023-11-21T17:59:18;10.70;99.90
4090;DHT22;2059;48.538;12.146;2023-11-21T18:04:21;10.70;99.90
4090;DHT22;2059;48.538;12.146;2023-11-21T18:09:23;10.60;99.90
4090;DHT22;2059;48.538;12.146;2023-11-21T18:14:25;10.60;99.90
4090;DHT22;2059;48.538;12.146;2023-11-21T18:19:28;10.60;99.90
4090;DHT22;2059;48.538;12.146;2023-11-21T18:24:30;10.60;99.90
4090;DHT22;2059;48.538;12.146;2023-11-21T18:29:32;10.50;99.90
4090;DHT22;2059;48.538;12.146;2023-11-21T18:34:35;10.50;99.90
4090;DHT22;2059;48.538;12.146;2023-11-21T18:39:37;10.40;99.90
4090;DHT22;2059;48.538;12.146;2023-11-21T18:44:41;10.40;99.90
4090;DHT22;2059;48.538;12.146;2023-11-21T18:49:44;10.30;99.90
4090;DHT22;2059;48.538;12.146;2023-11-21T18:54:46;10.30;99.90
4090;DHT22;2059;48.538;12.146;2023-11-21T18:59:48;10.30;99.90
4090;DHT22;2059;48.538;12.146;2023-11-21T19:04:52;10.30;99.90
4090;DHT22;2059;48.538;12.146;2023-11-21T19:09:54;10.30;99.90
4090;DHT22;2059;48.538;12.146;2023-11-21T19:14:55;10.20;99.90
4090;DHT22;2059;48.538;12.146;2023-11-21T19:19:58;10.30;99.90
4090;DHT22;2059;48.538;12.146;2023-11-21T19:25:01;10.30;99.90
4090;DHT22;2059;48.538;12.146;2023-11-21T19:30:03;10.20;99.90
4090;DHT22;2059;48.538;12.146;2023-11-21T19:35:07;10.10;99.90
4090;DHT22;2059;48.538;12.146;2023-11-21T19:40:10;10.10;99.90
4090;DHT22;2059;48.538;12.146;2023-11-21T19:45:14;10.20;99.90
4090;DHT22;2059;48.538;12.146;2023-11-21T19:50:17;10.20;99.90
4090;DHT22;2059;48.538;12.146;2023-11-21T19:55:19;10.30;99.90
4090;DHT22;2059;48.538;12.146;2023-11-21T20:00:21;10.30;99.90
4090;DHT22;2059;48.538;12.146;2023-11-21T20:05:24;10.20;99.90
4090;DHT22;2059;48.538;12.146;2023-11-21T20:10:27;10.20;99.90
4090;DHT22;2059;48.538;12.146;2023-11-21T20:15:29;10.30;99.90
4090;DHT22;2059;48.538;12.146;2023-11-21T20:20:32;10.20;99.90
4090;DHT22;2059;48.538;12.146;2023-11-21T20:25:36;10.20;99.90
4090;DHT22;2059;48.538;12.146;2023-11-21T20:30:38;10.20;99.90
4090;DHT22;2059;48.538;12.146;2023-11-21T20:35:41;10.30;99.90
4090;DHT22;2059;48.538;12.146;2023-11-21T20:40:43;10.30;99.90
4090;DHT22;2059;48.538;12.146;2023-11-21T20:45:45;10.30;99.90
4090;DHT22;2059;48.538;12.146;2023-11-21T20:50:48;10.30;99.90
4090;DHT22;2059;48.538;12.146;2023-11-21T20:55:50;10.30;99.90
4090;DHT22;2059;48.538;12.146;2023-11-21T21:00:52;10.30;99.90
4090;DHT22;2059;48.538;12.146;2023-11-21T21:05:56;10.30;99.90
4090;DHT22;2059;48.538;12.146;2023-11-21T21:10:57;10.30;99.90
4090;DHT22;2059;48.538;12.146;2023-11-21T21:15:59;10.30;99.90
4090;DHT22;2059;48.538;12.146;2023-11-21T21:21:03;10.30;99.90
4090;DHT22;2059;48.538;12.146;2023-11-21T21:26:04;10.30;99.90
4090;DHT22;2059;48.538;12.146;2023-11-21T21:31:09;10.30;99.90
4090;DHT22;2059;48.538;12.146;2023-11-21T21:36:13;10.30;99.90
4090;DHT22;2059;48.538;12.146;2023-11-21T21:41:18;10.20;99.90
4090;DHT22;2059;48.538;12.146;2023-11-21T21:46:20;10.30;99.90
4090;DHT22;2059;48.538;12.146;2023-11-21T21:51:24;10.10;99.90
4090;DHT22;2059;48.538;12.146;2023-11-21T21:56:26;10.20;99.90
4090;DHT22;2059;48.538;12.146;2023-11-21T22:01:27;10.10;99.90
4090;DHT22;2059;48.538;12.146;2023-11-21T22:06:34;10.10;99.90
4090;DHT22;2059;48.538;12.146;2023-11-21T22:11:36;10.10;99.90
4090;DHT22;2059;48.538;12.146;2023-11-21T22:16:39;10.10;99.90
4090;DHT22;2059;48.538;12.146;2023-11-21T22:21:42;10.20;99.90
4090;DHT22;2059;48.538;12.146;2023-11-21T22:26:44;10.10;99.90
4090;DHT22;2059;48.538;12.146;2023-11-21T22:31:47;10.20;99.90
4090;DHT22;2059;48.538;12.146;2023-11-21T22:36:51;10.10;99.90
4090;DHT22;2059;48.538;12.146;2023-11-21T22:41:54;10.00;99.90
4090;DHT22;2059;48.538;12.146;2023-11-21T22:46:56;10.10;99.90
4090;DHT22;2059;48.538;12.146;2023-11-21T22:52:01;10.10;99.90
4090;DHT22;2059;48.538;12.146;2023-11-21T22:57:04;10.20;99.90
4090;DHT22;2059;48.538;12.146;2023-11-21T23:02:06;10.10;99.90
4090;DHT22;2059;48.538;12.146;2023-11-21T23:07:09;10.10;99.90
4090;DHT22;2059;48.538;12.146;2023-11-21T23:12:10;10.10;99.90
4090;DHT22;2059;48.538;12.146;2023-11-21T23:17:12;10.00;99.90
4090;DHT22;2059;48.538;12.146;2023-11-21T23:22:15;10.10;99.90
4090;DHT22;2059;48.538;12.146;2023-11-21T23:27:17;9.90;99.90
4090;DHT22;2059;48.538;12.146;2023-11-21T23:32:19;9.70;99.90
4090;DHT22;2059;48.538;12.146;2023-11-21T23:37:24;9.70;99.90
4090;DHT22;2059;48.538;12.146;2023-11-21T23:42:26;9.40;99.90
4090;DHT22;2059;48.538;12.146;2023-11-21T23:47:27;9.10;99.90
4090;DHT22;2059;48.538;12.146;2023-11-21T23:52:31;9.00;99.90
4090;DHT22;2059;48.538;12.146;2023-11-21T23:57:33;8.90;99.90
